createdAt,value
2018-12-02T00:00:15.771Z,8.60
2018-12-02T00:02:43.807Z,8.50
2018-12-02T00:05:11.850Z,8.60
2018-12-02T00:07:40.027Z,8.60
2018-12-02T00:10:09.815Z,8.70
2018-12-02T00:12:37.987Z,8.70
2018-12-02T00:15:12.752Z,8.70
2018-12-02T00:17:40.794Z,8.70
2018-12-02T00:20:13.682Z,8.70
2018-12-02T00:22:41.772Z,8.70
2018-12-02T00:25:12.707Z,8.70
2018-12-02T00:27:41.562Z,8.70
2018-12-02T00:30:11.178Z,8.70
2018-12-02T00:32:39.261Z,8.80
2018-12-02T00:35:09.690Z,8.90
2018-12-02T00:37:37.841Z,8.80
2018-12-02T00:40:11.150Z,8.70
2018-12-02T00:42:39.319Z,8.80
2018-12-02T00:45:27.204Z,8.80
2018-12-02T00:47:55.309Z,8.80
2018-12-02T00:50:23.384Z,8.80
2018-12-02T00:52:53.652Z,8.80
2018-12-02T00:55:28.147Z,8.70
2018-12-02T00:57:56.235Z,8.70
2018-12-02T01:00:24.287Z,8.80
2018-12-02T01:02:52.410Z,8.80
2018-12-02T01:05:21.462Z,8.80
2018-12-02T01:07:49.539Z,8.80
2018-12-02T01:10:21.474Z,8.80
2018-12-02T01:12:51.610Z,8.80
2018-12-02T01:15:20.878Z,8.80
2018-12-02T01:20:08.363Z,8.80
2018-12-02T01:22:36.394Z,8.90
2018-12-02T01:25:04.895Z,8.90
2018-12-02T01:27:32.958Z,8.90
2018-12-02T01:30:01.014Z,8.90
2018-12-02T01:32:29.046Z,8.80
2018-12-02T01:34:57.078Z,8.90
2018-12-02T01:37:25.119Z,8.80
2018-12-02T01:39:53.150Z,8.90
2018-12-02T01:42:21.179Z,8.90
2018-12-02T01:44:49.231Z,8.90
2018-12-02T01:47:17.265Z,8.90
2018-12-02T01:49:45.332Z,9.00
2018-12-02T01:52:13.830Z,9.00
2018-12-02T01:54:42.205Z,9.00
2018-12-02T01:57:10.223Z,9.00
2018-12-02T01:59:38.249Z,9.00
2018-12-02T02:02:06.259Z,9.00
2018-12-02T02:04:34.299Z,9.00
2018-12-02T02:07:02.338Z,9.00
2018-12-02T02:09:30.369Z,9.00
2018-12-02T02:11:58.419Z,8.90
2018-12-02T02:14:26.445Z,9.00
2018-12-02T02:16:54.467Z,8.80
2018-12-02T02:19:22.495Z,8.80
2018-12-02T02:21:50.547Z,8.70
2018-12-02T02:24:18.608Z,8.70
2018-12-02T02:26:46.666Z,8.70
2018-12-02T02:29:14.727Z,8.70
2018-12-02T02:31:42.780Z,8.70
2018-12-02T02:34:10.843Z,8.80
2018-12-02T02:36:38.895Z,8.80
2018-12-02T02:39:08.368Z,8.70
2018-12-02T02:41:36.670Z,8.70
2018-12-02T02:44:04.997Z,8.70
2018-12-02T02:46:33.054Z,8.70
2018-12-02T02:49:01.115Z,8.70
2018-12-02T02:51:29.159Z,8.70
2018-12-02T02:53:57.216Z,8.80
2018-12-02T02:56:25.274Z,8.70
2018-12-02T02:58:53.323Z,8.80
2018-12-02T03:01:21.384Z,8.80
2018-12-02T03:03:49.435Z,8.80
2018-12-02T03:06:17.480Z,8.80
2018-12-02T03:08:45.536Z,8.80
2018-12-02T03:11:13.563Z,8.90
2018-12-02T03:13:41.626Z,8.90
2018-12-02T03:16:09.679Z,8.80
2018-12-02T03:18:37.746Z,8.80
2018-12-02T03:21:05.792Z,8.90
2018-12-02T03:23:33.839Z,8.90
2018-12-02T03:26:01.891Z,8.90
2018-12-02T03:28:29.918Z,9.10
2018-12-02T03:30:57.966Z,9.00
2018-12-02T03:33:26.028Z,9.10
2018-12-02T03:35:54.078Z,9.10
2018-12-02T03:38:22.123Z,9.10
2018-12-02T03:40:50.167Z,9.10
2018-12-02T03:43:18.225Z,9.10
2018-12-02T03:45:46.293Z,9.10
2018-12-02T03:48:14.318Z,9.10
2018-12-02T03:50:42.371Z,9.20
2018-12-02T03:53:10.431Z,9.20
2018-12-02T03:55:38.476Z,9.10
2018-12-02T03:58:06.573Z,9.10
2018-12-02T04:00:34.607Z,9.10
2018-12-02T04:03:02.657Z,9.20
2018-12-02T04:05:30.706Z,9.20
2018-12-02T04:07:58.735Z,9.20
2018-12-02T04:10:26.771Z,9.20
2018-12-02T04:12:54.810Z,9.20
2018-12-02T04:15:24.342Z,9.20
2018-12-02T04:17:52.380Z,9.20
2018-12-02T04:20:20.854Z,9.30
2018-12-02T04:22:49.774Z,9.30
2018-12-02T04:25:22.743Z,9.20
2018-12-02T04:27:50.775Z,9.30
2018-12-02T04:30:19.487Z,9.30
2018-12-02T04:32:48.503Z,9.30
2018-12-02T04:35:21.511Z,9.40
2018-12-02T04:37:49.558Z,9.40
2018-12-02T04:40:17.574Z,9.50
2018-12-02T04:42:45.638Z,9.50
2018-12-02T04:45:16.327Z,9.60
2018-12-02T04:47:44.432Z,9.70
2018-12-02T04:50:14.623Z,9.60
2018-12-02T04:52:42.655Z,9.60
2018-12-02T04:55:10.889Z,9.60
2018-12-02T04:57:38.930Z,9.60
2018-12-02T05:00:09.571Z,9.60
2018-12-02T05:02:37.631Z,9.70
2018-12-02T05:05:08.779Z,9.70
2018-12-02T05:07:36.923Z,9.70
2018-12-02T05:10:10.042Z,9.70
2018-12-02T05:12:38.296Z,9.70
2018-12-02T05:15:07.614Z,9.70
2018-12-02T05:17:35.650Z,9.70
2018-12-02T05:20:04.162Z,9.70
2018-12-02T05:22:32.167Z,9.70
2018-12-02T05:25:00.187Z,9.70
2018-12-02T05:27:28.212Z,9.80
2018-12-02T05:29:56.231Z,9.90
2018-12-02T05:32:24.240Z,9.90
2018-12-02T05:34:52.267Z,10.00
2018-12-02T05:37:20.288Z,10.00
2018-12-02T05:39:48.318Z,9.90
2018-12-02T05:42:21.809Z,9.90
2018-12-02T05:44:49.868Z,9.80
2018-12-02T05:47:17.899Z,9.90
2018-12-02T05:49:45.927Z,9.90
2018-12-02T05:52:13.954Z,9.90
2018-12-02T05:54:41.992Z,9.80
2018-12-02T05:57:10.043Z,9.80
2018-12-02T05:59:38.079Z,9.80
2018-12-02T06:02:06.171Z,9.80
2018-12-02T06:04:34.191Z,9.80
2018-12-02T06:07:02.236Z,9.80
2018-12-02T06:09:30.261Z,9.80
2018-12-02T06:11:58.290Z,9.80
2018-12-02T06:14:26.336Z,9.80
2018-12-02T06:16:54.369Z,9.80
2018-12-02T06:19:22.383Z,9.70
2018-12-02T06:21:50.419Z,9.60
2018-12-02T06:24:18.455Z,9.60
2018-12-02T06:26:46.508Z,9.60
2018-12-02T06:29:14.548Z,9.60
2018-12-02T06:31:42.567Z,9.70
2018-12-02T06:34:10.599Z,9.70
2018-12-02T06:36:38.631Z,9.70
2018-12-02T06:39:09.393Z,9.70
2018-12-02T06:41:38.686Z,9.80
2018-12-02T06:44:06.763Z,9.70
2018-12-02T06:46:35.050Z,9.70
2018-12-02T06:49:03.066Z,9.70
2018-12-02T06:51:31.087Z,9.80
2018-12-02T06:54:00.220Z,9.70
2018-12-02T06:56:29.978Z,9.70
2018-12-02T06:59:22.743Z,9.80
2018-12-02T07:01:55.630Z,9.80
2018-12-02T07:04:25.946Z,9.80
2018-12-02T07:06:54.034Z,9.80
2018-12-02T07:09:22.075Z,9.80
2018-12-02T07:11:50.115Z,9.70
2018-12-02T07:14:18.118Z,9.80
2018-12-02T07:16:46.171Z,9.80
2018-12-02T07:19:16.094Z,9.80
2018-12-02T07:21:46.227Z,9.80
2018-12-02T07:24:14.269Z,9.70
2018-12-02T07:26:42.342Z,9.70
2018-12-02T07:29:10.392Z,9.80
2018-12-02T07:31:38.483Z,9.90
2018-12-02T07:34:06.561Z,9.80
2018-12-02T07:36:34.635Z,9.80
2018-12-02T07:39:20.228Z,9.70
2018-12-02T07:41:48.283Z,9.70
2018-12-02T07:44:16.317Z,9.80
2018-12-02T07:46:44.347Z,9.80
2018-12-02T07:49:12.391Z,9.70
2018-12-02T07:51:40.430Z,9.70
2018-12-02T07:54:08.485Z,9.80
2018-12-02T07:56:36.518Z,9.80
2018-12-02T07:59:04.583Z,9.80
2018-12-02T08:01:32.631Z,9.90
2018-12-02T08:04:01.386Z,9.80
2018-12-02T08:06:29.422Z,9.90
2018-12-02T08:08:57.486Z,9.80
2018-12-02T08:11:25.535Z,9.70
2018-12-02T08:13:53.587Z,9.80
2018-12-02T08:16:21.622Z,9.80
2018-12-02T08:18:49.648Z,9.80
2018-12-02T08:21:17.695Z,9.70
2018-12-02T08:23:45.724Z,9.70
2018-12-02T08:26:13.774Z,9.70
2018-12-02T08:28:41.804Z,9.70
2018-12-02T08:31:09.891Z,9.80
2018-12-02T08:33:37.903Z,9.80
2018-12-02T08:36:05.940Z,9.80
2018-12-02T08:38:33.980Z,9.80
2018-12-02T08:41:02.007Z,9.70
2018-12-02T08:43:30.042Z,9.80
2018-12-02T08:45:58.084Z,9.70
2018-12-02T08:48:26.147Z,9.70
2018-12-02T08:50:54.154Z,9.70
2018-12-02T08:53:22.210Z,9.70
2018-12-02T08:55:50.231Z,9.80
2018-12-02T08:58:18.787Z,9.80
2018-12-02T09:00:46.817Z,9.80
2018-12-02T09:03:14.846Z,9.70
2018-12-02T09:05:42.890Z,9.70
2018-12-02T09:08:11.232Z,9.70
2018-12-02T09:10:39.449Z,9.70
2018-12-02T09:13:08.875Z,9.70
2018-12-02T09:15:36.919Z,9.70
2018-12-02T09:18:07.038Z,9.70
2018-12-02T09:20:35.607Z,9.80
2018-12-02T09:23:04.321Z,9.90
2018-12-02T09:25:32.375Z,10.00
2018-12-02T09:28:00.641Z,9.90
2018-12-02T09:30:29.657Z,9.80
2018-12-02T09:32:57.737Z,9.80
2018-12-02T09:35:25.816Z,9.80
2018-12-02T09:37:53.870Z,9.80
2018-12-02T09:40:21.913Z,9.80
2018-12-02T09:42:51.141Z,9.80
2018-12-02T09:45:21.330Z,9.70
2018-12-02T09:47:49.375Z,9.70
2018-12-02T09:50:17.632Z,9.80
2018-12-02T09:52:45.658Z,9.80
2018-12-02T09:55:47.331Z,10.00
2018-12-02T09:58:24.888Z,9.90
2018-12-02T10:00:53.722Z,10.00
2018-12-02T10:03:21.753Z,10.00
2018-12-02T10:05:49.810Z,10.00
2018-12-02T10:08:17.844Z,10.10
2018-12-02T10:10:45.891Z,10.00
2018-12-02T10:13:15.710Z,10.00
2018-12-02T10:15:44.066Z,10.10
2018-12-02T10:18:12.168Z,10.00
2018-12-02T10:20:40.195Z,10.00
2018-12-02T10:23:08.636Z,10.00
2018-12-02T10:25:36.662Z,10.10
2018-12-02T10:28:05.247Z,10.20
2018-12-02T10:30:33.334Z,10.30
2018-12-02T10:33:01.372Z,10.30
2018-12-02T10:35:29.430Z,10.30
2018-12-02T10:37:57.479Z,10.30
2018-12-02T10:40:26.426Z,10.30
2018-12-02T10:42:54.482Z,10.30
2018-12-02T10:45:23.405Z,10.40
2018-12-02T10:47:53.720Z,10.40
2018-12-02T10:50:24.154Z,10.40
2018-12-02T10:52:53.247Z,10.50
2018-12-02T10:55:34.483Z,10.60
2018-12-02T10:58:02.530Z,10.70
2018-12-02T11:00:36.100Z,10.80
2018-12-02T11:03:04.152Z,10.80
2018-12-02T11:05:32.207Z,10.90
2018-12-02T11:08:00.261Z,10.90
2018-12-02T11:10:28.320Z,10.70
2018-12-02T11:12:56.370Z,10.70
2018-12-02T11:15:24.427Z,10.60
2018-12-02T11:17:52.484Z,10.50
2018-12-02T11:20:20.527Z,10.50
2018-12-02T11:22:48.602Z,10.60
2018-12-02T11:25:16.655Z,10.50
2018-12-02T11:27:44.705Z,10.60
2018-12-02T11:30:15.467Z,10.50
2018-12-02T11:32:44.531Z,10.50
2018-12-02T11:35:13.688Z,10.60
2018-12-02T11:37:41.779Z,10.60
2018-12-02T11:40:11.262Z,10.50
2018-12-02T11:42:39.326Z,10.60
2018-12-02T11:45:09.970Z,10.60
2018-12-02T11:47:38.561Z,10.60
2018-12-02T11:50:13.538Z,10.50
2018-12-02T11:52:41.618Z,10.60
2018-12-02T11:55:10.547Z,10.50
2018-12-02T11:57:38.930Z,10.50
2018-12-02T12:00:15.177Z,10.50
2018-12-02T12:02:43.266Z,10.50
2018-12-02T12:05:11.743Z,10.60
2018-12-02T12:07:40.540Z,10.50
2018-12-02T12:10:11.191Z,10.60
2018-12-02T12:12:39.331Z,10.70
2018-12-02T12:15:10.375Z,10.80
2018-12-02T12:17:38.442Z,10.80
2018-12-02T12:20:16.134Z,10.90
2018-12-02T12:22:44.178Z,11.00
2018-12-02T12:25:12.242Z,11.00
2018-12-02T12:27:40.303Z,11.00
2018-12-02T12:30:13.115Z,11.10
2018-12-02T12:32:41.179Z,11.10
2018-12-02T12:35:10.496Z,11.10
2018-12-02T12:37:38.584Z,11.10
2018-12-02T12:40:13.891Z,11.10
2018-12-02T12:42:43.338Z,11.10
2018-12-02T12:45:12.598Z,11.10
2018-12-02T12:47:41.318Z,11.00
2018-12-02T12:50:10.805Z,11.00
2018-12-02T12:52:38.946Z,11.00
2018-12-02T12:55:08.910Z,11.00
2018-12-02T12:57:36.990Z,11.00
2018-12-02T13:00:11.507Z,11.00
2018-12-02T13:02:39.542Z,10.90
2018-12-02T13:05:09.566Z,11.00
2018-12-02T13:07:37.611Z,11.10
2018-12-02T13:10:08.492Z,11.10
2018-12-02T13:12:36.577Z,11.30
2018-12-02T13:15:06.766Z,11.30
2018-12-02T13:17:34.811Z,11.20
2018-12-02T13:20:02.821Z,11.20
2018-12-02T13:22:30.967Z,11.20
2018-12-02T13:24:59.002Z,11.30
2018-12-02T13:27:27.040Z,11.40
2018-12-02T13:29:55.073Z,11.50
2018-12-02T13:32:23.106Z,11.40
2018-12-02T13:34:51.139Z,11.40
2018-12-02T13:37:19.196Z,11.50
2018-12-02T13:39:47.247Z,11.50
2018-12-02T13:42:15.298Z,11.50
2018-12-02T13:44:43.334Z,11.60
2018-12-02T13:47:11.447Z,11.60
2018-12-02T13:49:39.514Z,11.60
2018-12-02T13:52:07.555Z,11.60
2018-12-02T13:54:37.051Z,11.60
2018-12-02T13:57:05.457Z,11.70
2018-12-02T13:59:33.496Z,11.60
2018-12-02T14:02:01.546Z,11.60
2018-12-02T14:04:29.608Z,11.50
2018-12-02T14:06:57.679Z,11.50
2018-12-02T14:09:25.723Z,11.40
2018-12-02T14:11:53.762Z,11.40
2018-12-02T14:14:21.822Z,11.40
2018-12-02T14:16:59.383Z,11.30
2018-12-02T14:19:27.451Z,11.30
2018-12-02T14:21:55.491Z,11.40
2018-12-02T14:24:23.552Z,11.30
2018-12-02T14:26:51.643Z,11.40
2018-12-02T14:29:26.943Z,11.50
2018-12-02T14:31:56.923Z,11.40
2018-12-02T14:34:24.983Z,11.40
2018-12-02T14:36:53.003Z,11.40
2018-12-02T14:39:21.069Z,11.50
2018-12-02T14:41:49.135Z,11.50
2018-12-02T14:44:17.154Z,11.40
2018-12-02T14:46:45.191Z,11.40
2018-12-02T14:49:13.254Z,11.40
2018-12-02T14:51:41.316Z,11.40
2018-12-02T14:54:09.360Z,11.40
2018-12-02T14:56:37.395Z,11.40
2018-12-02T14:59:05.550Z,11.40
2018-12-02T15:01:33.618Z,11.40
2018-12-02T15:04:01.666Z,11.40
2018-12-02T15:06:29.717Z,11.40
2018-12-02T15:08:57.769Z,11.40
2018-12-02T15:11:25.810Z,11.40
2018-12-02T15:13:53.851Z,11.40
2018-12-02T15:16:21.903Z,11.50
2018-12-02T15:18:49.952Z,11.50
2018-12-02T15:21:18.029Z,11.50
2018-12-02T15:23:46.099Z,11.50
2018-12-02T15:26:14.141Z,11.40
2018-12-02T15:28:42.201Z,11.50
2018-12-02T15:31:10.262Z,11.40
2018-12-02T15:33:38.320Z,11.50
2018-12-02T15:36:06.427Z,11.40
2018-12-02T15:38:34.492Z,11.50
2018-12-02T15:41:02.571Z,11.50
2018-12-02T15:43:30.624Z,11.50
2018-12-02T15:45:58.674Z,11.50
2018-12-02T15:48:26.752Z,11.50
2018-12-02T15:50:54.818Z,11.50
2018-12-02T15:53:22.858Z,11.50
2018-12-02T15:55:50.924Z,11.50
2018-12-02T15:58:20.178Z,11.50
2018-12-02T16:00:48.347Z,11.50
2018-12-02T16:03:16.403Z,11.50
2018-12-02T16:05:44.447Z,11.50
2018-12-02T16:08:12.480Z,11.50
2018-12-02T16:10:40.542Z,11.60
2018-12-02T16:13:10.587Z,11.60
2018-12-02T16:15:38.647Z,11.60
2018-12-02T16:18:08.479Z,11.60
2018-12-02T16:20:53.374Z,11.60
2018-12-02T16:23:22.657Z,11.60
2018-12-02T16:25:50.740Z,11.60
2018-12-02T16:28:18.908Z,11.60
2018-12-02T16:30:47.884Z,11.70
2018-12-02T16:33:15.944Z,11.60
2018-12-02T16:35:44.034Z,11.70
2018-12-02T16:38:12.731Z,11.70
2018-12-02T16:40:40.786Z,11.80
2018-12-02T16:43:09.787Z,11.80
2018-12-02T16:45:37.883Z,11.80
2018-12-02T16:48:08.487Z,11.80
2018-12-02T16:50:38.082Z,11.80
2018-12-02T16:53:10.166Z,11.80
2018-12-02T16:55:42.463Z,11.80
2018-12-02T17:00:21.526Z,11.90
2018-12-02T17:02:49.670Z,11.90
2018-12-02T17:05:17.739Z,11.80
2018-12-02T17:07:45.830Z,11.80
2018-12-02T17:10:14.299Z,11.90
2018-12-02T17:12:42.370Z,11.90
2018-12-02T17:15:13.664Z,11.90
2018-12-02T17:17:41.898Z,11.90
2018-12-02T17:20:13.501Z,11.90
2018-12-02T17:22:41.620Z,11.90
2018-12-02T17:25:11.090Z,11.90
2018-12-02T17:27:39.280Z,12.00
2018-12-02T17:30:18.861Z,12.00
2018-12-02T17:32:47.035Z,12.00
2018-12-02T17:35:15.078Z,12.00
2018-12-02T17:37:43.142Z,12.10
2018-12-02T17:40:14.334Z,12.00
2018-12-02T17:42:42.418Z,12.00
2018-12-02T17:45:10.860Z,12.00
2018-12-02T17:47:38.926Z,12.00
2018-12-02T17:50:13.470Z,12.00
2018-12-02T17:52:42.605Z,12.00
2018-12-02T17:55:10.727Z,12.00
2018-12-02T17:57:38.770Z,11.90
2018-12-02T18:00:11.407Z,11.90
2018-12-02T18:02:39.491Z,11.90
2018-12-02T18:05:10.406Z,11.90
2018-12-02T18:07:38.493Z,11.90
2018-12-02T18:10:11.773Z,11.90
2018-12-02T18:12:39.938Z,11.90
2018-12-02T18:15:11.817Z,11.90
2018-12-02T18:17:39.970Z,11.90
2018-12-02T18:20:09.901Z,11.90
2018-12-02T18:22:37.955Z,11.90
2018-12-02T18:25:09.011Z,11.90
2018-12-02T18:27:37.103Z,11.90
2018-12-02T18:30:14.375Z,11.90
2018-12-02T18:32:42.474Z,11.90
2018-12-02T18:35:16.960Z,11.90
2018-12-02T18:37:45.032Z,11.90
2018-12-02T18:40:13.059Z,11.90
2018-12-02T18:42:41.139Z,12.00
2018-12-02T18:45:09.607Z,12.00
2018-12-02T18:47:37.654Z,12.00
2018-12-02T18:50:10.024Z,12.00
2018-12-02T18:52:38.363Z,12.00
2018-12-02T18:55:08.816Z,12.10
2018-12-02T18:57:36.851Z,12.10
2018-12-02T19:00:15.182Z,12.10
2018-12-02T19:02:43.396Z,12.20
2018-12-02T19:05:11.490Z,12.20
2018-12-02T19:07:39.562Z,12.30
2018-12-02T19:10:10.831Z,12.30
2018-12-02T19:12:38.873Z,12.30
2018-12-02T19:15:10.565Z,12.30
2018-12-02T19:17:38.782Z,12.30
2018-12-02T19:20:10.600Z,12.40
2018-12-02T19:22:38.671Z,12.40
2018-12-02T19:25:09.220Z,12.40
2018-12-02T19:27:37.269Z,12.50
2018-12-02T19:30:12.259Z,12.50
2018-12-02T19:32:40.341Z,12.50
2018-12-02T19:35:16.693Z,12.50
2018-12-02T19:37:45.907Z,12.40
2018-12-02T19:40:15.138Z,12.40
2018-12-02T19:42:43.184Z,12.40
2018-12-02T19:45:15.400Z,12.40
2018-12-02T19:47:43.451Z,12.40
2018-12-02T19:50:12.895Z,12.40
2018-12-02T19:52:40.943Z,12.40
2018-12-02T19:55:10.226Z,12.50
2018-12-02T19:57:38.328Z,12.50
2018-12-02T20:00:16.206Z,12.50
2018-12-02T20:02:44.660Z,12.50
2018-12-02T20:05:12.698Z,12.40
2018-12-02T20:07:40.836Z,12.40
2018-12-02T20:10:11.447Z,12.40
2018-12-02T20:12:39.567Z,12.40
2018-12-02T20:15:10.031Z,12.30
2018-12-02T20:17:38.095Z,12.30
2018-12-02T20:20:14.840Z,12.30
2018-12-02T20:22:42.939Z,12.30
2018-12-02T20:25:10.971Z,12.30
2018-12-02T20:27:39.018Z,12.30
2018-12-02T20:30:11.165Z,12.20
2018-12-02T20:32:39.245Z,12.20
2018-12-02T20:35:08.957Z,12.20
2018-12-02T20:37:37.023Z,12.30
2018-12-02T20:40:25.083Z,12.30
2018-12-02T20:42:53.165Z,12.20
2018-12-02T20:45:21.238Z,12.20
2018-12-02T20:47:49.304Z,12.20
2018-12-02T20:50:18.098Z,12.20
2018-12-02T20:52:46.737Z,12.20
2018-12-02T20:55:20.015Z,12.30
2018-12-02T20:57:48.820Z,12.30
2018-12-02T21:00:17.851Z,12.30
2018-12-02T21:02:52.687Z,12.30
2018-12-02T21:05:28.604Z,12.30
2018-12-02T21:07:56.652Z,12.30
2018-12-02T21:10:24.691Z,12.30
2018-12-02T21:12:52.827Z,12.30
2018-12-02T21:15:20.871Z,12.30
2018-12-02T21:17:48.951Z,12.30
2018-12-02T21:20:16.991Z,12.40
2018-12-02T21:22:45.096Z,12.40
2018-12-02T21:25:15.904Z,12.40
2018-12-02T21:27:44.039Z,12.40
2018-12-02T21:30:14.322Z,12.40
2018-12-02T21:32:42.439Z,12.30
2018-12-02T21:35:10.486Z,12.40
2018-12-02T21:37:38.672Z,12.40
2018-12-02T21:40:11.086Z,12.40
2018-12-02T21:42:39.144Z,12.40
2018-12-02T21:45:09.275Z,12.40
2018-12-02T21:47:37.675Z,12.40
2018-12-02T21:50:10.742Z,12.40
2018-12-02T21:52:38.828Z,12.40
2018-12-02T21:55:07.522Z,12.40
2018-12-02T21:57:36.116Z,12.40
2018-12-02T22:00:20.003Z,12.40
2018-12-02T22:02:48.442Z,12.40
2018-12-02T22:05:23.124Z,12.40
2018-12-02T22:07:52.038Z,12.30
2018-12-02T22:10:24.291Z,12.40
2018-12-02T22:12:52.695Z,12.40
2018-12-02T22:15:20.831Z,12.40
2018-12-02T22:17:48.896Z,12.40
2018-12-02T22:20:17.383Z,12.40
2018-12-02T22:22:45.414Z,12.40
2018-12-02T22:25:15.501Z,12.40
2018-12-02T22:27:45.759Z,12.40
2018-12-02T22:30:14.895Z,12.30
2018-12-02T22:32:42.987Z,12.40
2018-12-02T22:35:12.903Z,12.40
2018-12-02T22:37:40.967Z,12.40
2018-12-02T22:40:12.219Z,12.40
2018-12-02T22:42:40.274Z,12.40
2018-12-02T22:45:11.566Z,12.40
2018-12-02T22:47:39.614Z,12.40
2018-12-02T22:50:10.374Z,12.40
2018-12-02T22:52:38.449Z,12.40
2018-12-02T22:55:08.037Z,12.40
2018-12-02T22:57:36.582Z,12.40
2018-12-02T23:00:20.302Z,12.40
2018-12-02T23:02:56.645Z,12.40
2018-12-02T23:05:24.702Z,12.40
2018-12-02T23:07:52.743Z,12.30
2018-12-02T23:10:20.774Z,12.40
2018-12-02T23:12:48.843Z,12.40
2018-12-02T23:15:16.891Z,12.40
2018-12-02T23:17:44.930Z,12.30
2018-12-02T23:20:13.005Z,12.30
2018-12-02T23:22:41.042Z,12.30
2018-12-02T23:25:10.759Z,12.30
2018-12-02T23:27:38.786Z,12.30
2018-12-02T23:30:17.639Z,12.30
2018-12-02T23:32:45.739Z,12.30
2018-12-02T23:35:13.794Z,12.30
2018-12-02T23:37:41.854Z,12.30
2018-12-02T23:40:11.978Z,12.20
2018-12-02T23:42:40.026Z,12.20
2018-12-02T23:45:09.248Z,12.20
2018-12-02T23:47:37.298Z,12.20
2018-12-02T23:50:08.974Z,12.20
2018-12-02T23:52:37.034Z,12.10
2018-12-02T23:55:07.674Z,12.10
2018-12-02T23:57:35.758Z,12.10
